Time;durP1;ratioP1;P1;durP2;ratioP2;P2;SDS_P1;SDS_P2;PMS_P1;PMS_P2;Temp;Humidity;BMP_temperature;BMP_pressure;BME280_temperature;BME280_humidity;BME280_pressure;Samples;Min_cycle;Max_cycle;Signal;HPM_P1;HPM_P2
2022/06/04 00:01:25;;;;;;;7.25;3.95;;;;;;;18.48;49.09;99458.31;8189270;28;20070;-71
2022/06/04 00:05:31;;;;;;;5.93;4.05;;;;;;;18.42;49.34;99437.84;8178424;28;20669;-72
2022/06/04 00:09:32;;;;;;;8.48;4.43;;;;;;;18.39;49.46;99441.28;8179666;28;20485;-72
2022/06/04 00:17:54;;;;;;;5.30;3.25;;;;;;;18.25;49.64;99432.69;8191925;28;20477;-73
2022/06/04 00:21:54;;;;;;;8.23;4.20;;;;;;;18.21;49.64;99420.88;8173136;28;20060;-71
2022/06/04 00:25:58;;;;;;;6.18;4.00;;;;;;;18.17;49.97;99415.34;8191027;28;20071;-71
2022/06/04 00:30:01;;;;;;;6.85;4.03;;;;;;;18.10;50.11;99410.47;8180146;28;20044;-71
2022/06/04 00:34:03;;;;;;;7.45;3.83;;;;;;;18.06;50.24;99409.59;8176375;28;20047;-72
2022/06/04 00:38:05;;;;;;;8.43;4.20;;;;;;;18.03;50.15;99393.88;8175838;28;20055;-73
2022/06/04 00:42:12;;;;;;;8.05;4.05;;;;;;;18.01;50.28;99385.25;8180510;28;20091;-71
2022/06/04 00:46:42;;;;;;;7.85;4.65;;;;;;;18.01;50.25;99379.00;8176187;28;20131;-72
2022/06/04 00:50:44;;;;;;;8.02;3.65;;;;;;;18.00;50.23;99383.66;8179225;29;20492;-72
2022/06/04 00:54:47;;;;;;;11.20;3.88;;;;;;;18.00;50.36;99378.19;8175789;28;20055;-71
2022/06/04 00:58:57;;;;;;;13.70;4.25;;;;;;;17.98;50.34;99379.69;8177828;29;20053;-71
2022/06/04 01:03:19;;;;;;;8.82;4.05;;;;;;;17.93;50.53;99366.28;8179093;29;20598;-72
2022/06/04 01:07:47;;;;;;;6.25;4.20;;;;;;;17.91;50.63;99368.59;8177540;29;20055;-71
2022/06/04 01:12:12;;;;;;;6.13;4.18;;;;;;;17.89;50.57;99355.25;8174636;28;20080;-72
2022/06/04 01:16:31;;;;;;;11.35;4.43;;;;;;;17.87;50.65;99356.78;8175230;28;20052;-72
2022/06/04 01:20:38;;;;;;;6.88;3.85;;;;;;;17.85;50.60;99357.13;8241828;28;20049;-72
2022/06/04 01:24:53;;;;;;;8.23;4.18;;;;;;;17.83;50.69;99356.66;8242451;28;20051;-72
2022/06/04 01:29:01;;;;;;;6.18;4.35;;;;;;;17.82;50.85;99360.53;8213031;28;20543;-72
2022/06/04 01:33:12;;;;;;;7.90;4.28;;;;;;;17.82;51.07;99360.53;8240848;28;20457;-71
2022/06/04 01:37:18;;;;;;;7.05;4.32;;;;;;;17.81;51.01;99364.44;8175337;28;20095;-71
2022/06/04 01:41:28;;;;;;;7.70;4.13;;;;;;;17.80;51.12;99357.38;8181553;28;20055;-72
2022/06/04 01:45:33;;;;;;;10.82;4.25;;;;;;;17.75;51.38;99360.38;8163200;29;20063;-72
2022/06/04 01:49:43;;;;;;;6.30;3.90;;;;;;;17.72;51.39;99350.13;8155185;29;20095;-71
2022/06/04 01:53:44;;;;;;;10.07;4.45;;;;;;;17.71;51.40;99345.81;8133408;29;20044;-71
2022/06/04 01:57:50;;;;;;;8.73;4.18;;;;;;;17.68;51.36;99332.84;8136754;29;20063;-71
2022/06/04 02:01:53;;;;;;;10.93;4.00;;;;;;;17.65;51.67;99339.03;8146898;29;20146;-71
2022/06/04 02:05:59;;;;;;;8.65;3.88;;;;;;;17.64;51.48;99338.22;8139852;29;20419;-71
2022/06/04 02:10:07;;;;;;;6.80;4.30;;;;;;;17.60;51.52;99342.00;8170189;28;20056;-71
2022/06/04 02:14:08;;;;;;;9.30;4.55;;;;;;;17.58;51.31;99336.84;8172719;28;20043;-73
2022/06/04 02:18:10;;;;;;;8.50;4.28;;;;;;;17.56;51.64;99343.78;8181042;28;20103;-73
2022/06/04 02:22:11;;;;;;;7.88;4.05;;;;;;;17.52;51.68;99334.72;8173260;29;20503;-73
2022/06/04 02:26:13;;;;;;;5.88;3.85;;;;;;;17.50;51.75;99315.19;8219596;28;20051;-72
2022/06/04 02:30:14;;;;;;;8.40;4.18;;;;;;;17.49;51.83;99324.50;8203782;28;20057;-72
2022/06/04 02:34:18;;;;;;;6.88;4.13;;;;;;;17.47;51.68;99337.72;8218141;28;20109;-72
2022/06/04 02:38:44;;;;;;;6.85;4.50;;;;;;;17.47;51.94;99338.50;8224857;28;20054;-73
2022/06/04 02:42:48;;;;;;;7.32;3.90;;;;;;;17.51;51.80;99341.31;8211081;28;20550;-73
2022/06/04 02:46:54;;;;;;;8.35;3.92;;;;;;;17.54;51.76;99340.63;8211940;28;20558;-71
2022/06/04 02:50:59;;;;;;;6.00;4.20;;;;;;;17.51;52.22;99349.50;8227362;28;20117;-71
2022/06/04 02:55:14;;;;;;;5.95;4.15;;;;;;;17.50;52.32;99353.41;8200873;28;20043;-71
2022/06/04 02:59:17;;;;;;;6.25;4.47;;;;;;;17.49;52.28;99346.34;8184322;29;20489;-70
2022/06/04 03:03:18;;;;;;;8.18;4.40;;;;;;;17.48;52.32;99355.69;8181529;29;20048;-72
2022/06/04 03:07:21;;;;;;;11.40;4.88;;;;;;;17.44;52.37;99344.69;8193399;28;20711;-72
2022/06/04 03:11:22;;;;;;;7.57;4.90;;;;;;;17.42;52.50;99351.59;8201588;28;20138;-72
2022/06/04 03:15:23;;;;;;;9.27;4.80;;;;;;;17.38;52.45;99345.25;8178312;29;20504;-71
2022/06/04 03:19:24;;;;;;;9.23;4.88;;;;;;;17.37;52.74;99338.22;8182238;29;20059;-72
2022/06/04 03:23:25;;;;;;;9.45;4.72;;;;;;;17.37;52.86;99349.13;8177700;29;20174;-72
2022/06/04 03:27:29;;;;;;;15.25;4.85;;;;;;;17.35;52.97;99337.75;8200579;28;20062;-72
2022/06/04 03:31:30;;;;;;;6.78;4.13;;;;;;;17.36;52.87;99347.53;8179086;28;20130;-72
2022/06/04 03:35:32;;;;;;;8.82;4.50;;;;;;;17.40;52.74;99353.88;8180565;29;20060;-71
2022/06/04 03:39:33;;;;;;;7.40;4.18;;;;;;;17.43;52.64;99347.75;8180198;28;20066;-74
2022/06/04 03:43:34;;;;;;;8.88;4.38;;;;;;;17.45;52.79;99357.16;8179840;29;20055;-72
2022/06/04 03:47:38;;;;;;;7.07;4.35;;;;;;;17.45;52.93;99361.84;8173441;29;20082;-72
2022/06/04 03:51:39;;;;;;;6.78;4.13;;;;;;;17.45;52.90;99361.84;8173983;29;20094;-71
2022/06/04 03:55:40;;;;;;;11.18;4.90;;;;;;;17.43;53.14;99372.31;8172561;29;20051;-72
2022/06/04 03:59:41;;;;;;;11.50;4.72;;;;;;;17.44;53.22;99365.72;8175241;28;20048;-72
2022/06/04 04:03:42;;;;;;;7.80;4.57;;;;;;;17.39;53.58;99357.78;8179836;29;20050;-72
2022/06/04 04:07:44;;;;;;;10.82;5.35;;;;;;;17.40;54.19;99359.34;8175360;28;20423;-72
2022/06/04 04:11:44;;;;;;;9.98;5.35;;;;;;;17.36;54.02;99353.00;8181856;28;20194;-71
2022/06/04 04:15:46;;;;;;;6.72;4.63;;;;;;;17.34;54.12;99344.38;8178101;29;20430;-71
2022/06/04 04:19:47;;;;;;;9.60;5.18;;;;;;;17.37;54.24;99349.13;8180288;28;20119;-71
2022/06/04 04:23:48;;;;;;;8.07;4.82;;;;;;;17.39;54.49;99357.78;8190643;28;20048;-72
2022/06/04 04:27:49;;;;;;;10.27;4.85;;;;;;;17.42;54.90;99362.53;8179510;28;20045;-71
2022/06/04 04:31:53;;;;;;;7.20;4.32;;;;;;;17.45;55.09;99356.41;8202952;28;20149;-71
2022/06/04 04:35:53;;;;;;;11.77;4.45;;;;;;;17.51;54.86;99354.97;8174786;28;20047;-72
2022/06/04 04:39:55;;;;;;;10.50;4.53;;;;;;;17.57;55.03;99353.59;8201180;28;20070;-72
2022/06/04 04:43:55;;;;;;;7.93;4.53;;;;;;;17.62;55.14;99356.09;8179968;29;20143;-72
2022/06/04 04:47:56;;;;;;;8.93;4.57;;;;;;;17.68;55.38;99360.16;8210483;28;20181;-72
2022/06/04 04:51:57;;;;;;;7.15;4.30;;;;;;;17.70;55.44;99364.16;8196556;28;20191;-72
2022/06/04 04:55:58;;;;;;;11.73;4.57;;;;;;;17.72;55.68;99361.03;8197864;28;20047;-72
2022/06/04 04:59:59;;;;;;;5.97;4.03;;;;;;;17.76;56.00;99378.34;8184633;28;20143;-74
2022/06/04 05:04:00;;;;;;;10.07;4.85;;;;;;;17.79;56.13;99377.63;8184261;28;20050;-73
2022/06/04 05:08:01;;;;;;;6.45;4.53;;;;;;;17.76;57.01;99378.34;8182205;28;20317;-73
2022/06/04 05:12:03;;;;;;;7.22;4.40;;;;;;;17.69;57.59;99394.53;8172981;28;20142;-72
2022/06/04 05:16:04;;;;;;;8.77;4.60;;;;;;;17.56;59.70;99412.06;8196582;28;20419;-72
2022/06/04 05:20:06;;;;;;;13.38;5.10;;;;;;;17.30;61.81;99418.75;8198184;28;20494;-71
2022/06/04 05:24:09;;;;;;;6.93;5.05;;;;;;;17.23;62.83;99432.22;8198231;28;20137;-71
2022/06/04 05:28:10;;;;;;;9.57;5.07;;;;;;;17.01;66.21;99473.63;8196715;28;20074;-71
2022/06/04 05:32:11;;;;;;;13.45;6.55;;;;;;;16.86;65.27;99471.59;8212156;28;20051;-73
2022/06/04 05:36:12;;;;;;;9.85;6.40;;;;;;;16.69;66.76;99483.50;8198549;28;20054;-72
2022/06/04 05:40:13;;;;;;;10.68;6.70;;;;;;;16.61;68.89;99513.59;8198114;28;20051;-73
2022/06/04 05:44:15;;;;;;;12.30;6.93;;;;;;;16.43;69.95;99486.50;8198226;28;20062;-73
2022/06/04 05:48:16;;;;;;;12.70;7.45;;;;;;;16.36;70.54;99486.25;8197847;28;20471;-72
2022/06/04 05:52:17;;;;;;;15.90;8.05;;;;;;;16.34;70.99;99496.69;8197857;28;20051;-71
2022/06/04 05:56:19;;;;;;;9.82;7.55;;;;;;;16.30;73.91;99503.97;8198742;28;20094;-72
2022/06/04 06:00:20;;;;;;;12.50;7.50;;;;;;;16.19;74.25;99502.78;8197538;28;20411;-72
2022/06/04 06:04:22;;;;;;;11.23;7.70;;;;;;;16.17;74.73;99499.63;8195348;29;20078;-71
2022/06/04 06:08:23;;;;;;;10.77;7.85;;;;;;;16.21;75.25;99494.28;8197827;28;20099;-71
2022/06/04 06:12:24;;;;;;;14.00;8.75;;;;;;;16.25;75.30;99490.53;8201458;28;20058;-71
2022/06/04 06:16:29;;;;;;;15.73;8.77;;;;;;;16.29;75.76;99491.47;8204298;28;20106;-72
2022/06/04 06:20:31;;;;;;;15.30;8.55;;;;;;;16.39;75.53;99499.19;8203544;28;20051;-71
2022/06/04 06:24:32;;;;;;;13.93;9.13;;;;;;;16.53;74.95;99490.72;8169361;29;20079;-72
2022/06/04 06:28:34;;;;;;;14.85;9.20;;;;;;;16.69;74.69;99493.63;8203982;28;20059;-72
2022/06/04 06:32:35;;;;;;;13.80;9.35;;;;;;;16.80;74.91;99483.84;8201105;28;20051;-71
2022/06/04 06:36:36;;;;;;;16.15;9.88;;;;;;;16.94;74.14;99473.41;8203298;29;20051;-71
2022/06/04 06:40:37;;;;;;;18.60;11.48;;;;;;;17.05;74.38;99458.16;8203272;28;20055;-72
2022/06/04 06:44:38;;;;;;;14.38;10.07;;;;;;;17.25;74.24;99457.22;8203010;28;20062;-72
2022/06/04 06:48:40;;;;;;;15.70;10.00;;;;;;;17.46;73.94;99458.97;8202682;28;20051;-71
2022/06/04 06:52:41;;;;;;;15.13;9.25;;;;;;;17.63;73.35;99450.53;8198921;28;20550;-72
2022/06/04 06:56:44;;;;;;;13.48;8.85;;;;;;;17.79;73.87;99451.41;8232882;28;20057;-71
2022/06/04 07:00:45;;;;;;;11.57;8.38;;;;;;;17.93;74.02;99443.56;8200672;28;20044;-71
2022/06/04 07:04:46;;;;;;;15.60;8.73;;;;;;;17.97;74.93;99439.03;8202384;28;20538;-72
2022/06/04 07:08:47;;;;;;;10.75;7.10;;;;;;;18.08;74.41;99440.06;8199600;28;20047;-71
2022/06/04 07:12:48;;;;;;;12.25;8.02;;;;;;;17.94;75.69;99439.72;8202333;28;20053;-73
2022/06/04 07:16:49;;;;;;;11.23;7.20;;;;;;;17.94;75.69;99434.25;8184318;29;20083;-71
2022/06/04 07:20:51;;;;;;;10.00;6.53;;;;;;;18.08;74.44;99422.91;8200942;28;20074;-71
2022/06/04 07:24:55;;;;;;;10.50;6.40;;;;;;;18.27;73.79;99422.22;8183159;28;20050;-71
2022/06/04 07:28:56;;;;;;;11.93;7.32;;;;;;;18.44;73.45;99430.09;8201145;28;20047;-72
2022/06/04 07:32:58;;;;;;;9.05;7.43;;;;;;;18.63;73.49;99438.38;8201253;28;20070;-72
2022/06/04 07:36:59;;;;;;;11.82;6.60;;;;;;;18.66;73.47;99440.44;8201273;28;20055;-72
2022/06/04 07:41:00;;;;;;;10.93;7.13;;;;;;;18.67;75.44;99443.94;8201697;28;20066;-72
2022/06/04 07:45:01;;;;;;;10.50;6.78;;;;;;;18.54;76.34;99448.72;8202401;28;20502;-72
2022/06/04 07:49:04;;;;;;;12.10;7.00;;;;;;;18.60;75.94;99455.53;8200476;28;20550;-71
2022/06/04 07:53:06;;;;;;;9.80;6.72;;;;;;;18.67;75.83;99466.63;8197167;28;20058;-73
2022/06/04 07:57:07;;;;;;;13.32;8.18;;;;;;;18.65;76.15;99474.41;8198730;28;20423;-73
2022/06/04 08:01:10;;;;;;;11.77;8.18;;;;;;;18.58;76.57;99474.22;8212600;28;20086;-72
2022/06/04 08:05:11;;;;;;;12.82;9.13;;;;;;;18.52;77.11;99481.06;8200753;28;20134;-71
2022/06/04 08:09:12;;;;;;;12.18;9.40;;;;;;;18.55;77.19;99474.94;8200234;28;20059;-71
2022/06/04 08:17:25;;;;;;;15.90;10.30;;;;;;;18.59;77.49;99453.13;8213037;28;20063;-72
2022/06/04 08:21:26;;;;;;;11.85;8.98;;;;;;;18.68;77.11;99462.75;8200015;28;20043;-72
2022/06/04 08:25:27;;;;;;;11.95;9.50;;;;;;;18.82;76.88;99467.78;8199865;28;20058;-73
2022/06/04 08:29:33;;;;;;;14.95;9.38;;;;;;;19.02;76.40;99474.09;8199327;28;20043;-73
2022/06/04 08:33:36;;;;;;;16.45;9.50;;;;;;;19.15;76.11;99464.63;8198889;28;20059;-71
2022/06/04 08:37:37;;;;;;;14.23;9.23;;;;;;;19.24;75.90;99476.19;8199169;28;20105;-72
2022/06/04 08:41:50;;;;;;;15.63;8.98;;;;;;;19.37;75.00;99472.16;8197526;28;20074;-72
2022/06/04 08:45:51;;;;;;;13.98;9.02;;;;;;;19.45;74.46;99471.22;8198968;28;20050;-72
2022/06/04 08:50:18;;;;;;;11.68;8.45;;;;;;;19.79;74.18;99478.56;8197106;28;20132;-72
2022/06/04 08:59:11;;;;;;;10.80;8.30;;;;;;;20.29;72.05;99496.00;8198533;28;20059;-74
2022/06/04 09:03:23;;;;;;;11.68;7.15;;;;;;;20.39;70.71;99495.44;8199446;28;20055;-74
2022/06/04 09:07:35;;;;;;;10.85;7.50;;;;;;;20.57;70.53;99496.53;8197737;28;20070;-74
2022/06/04 09:11:56;;;;;;;9.38;7.30;;;;;;;20.61;70.33;99491.91;8186661;28;20056;-74
2022/06/04 09:16:02;;;;;;;9.90;6.15;;;;;;;20.60;69.49;99501.28;8197805;28;20049;-75
2022/06/04 09:20:44;;;;;;;10.10;6.05;;;;;;;20.74;69.21;99510.91;8198264;28;20542;-71
2022/06/04 09:24:45;;;;;;;9.52;6.45;;;;;;;20.75;68.13;99512.50;8196113;29;20047;-73
2022/06/04 09:29:10;;;;;;;9.63;6.32;;;;;;;20.78;68.55;99517.28;8193961;29;20039;-74
2022/06/04 09:33:45;;;;;;;9.02;6.35;;;;;;;20.95;68.30;99522.25;8193263;29;20501;-73
2022/06/04 09:37:48;;;;;;;10.40;5.72;;;;;;;21.02;67.47;99519.63;8191611;29;20146;-73
2022/06/04 09:41:57;;;;;;;10.20;5.93;;;;;;;21.02;67.56;99516.88;8193506;28;20446;-73
2022/06/04 09:46:03;;;;;;;11.63;6.45;;;;;;;21.16;67.03;99522.63;8196459;28;20452;-72
2022/06/04 09:50:24;;;;;;;8.48;5.70;;;;;;;21.18;66.43;99531.28;8199806;28;20050;-72
2022/06/04 09:54:28;;;;;;;10.23;6.80;;;;;;;21.36;66.63;99526.84;8198871;29;20062;-73
2022/06/04 09:58:33;;;;;;;7.78;6.28;;;;;;;21.44;66.11;99534.03;8199602;28;20502;-71
2022/06/04 10:02:34;;;;;;;15.05;6.00;;;;;;;21.41;65.66;99539.50;8203094;28;20047;-73
2022/06/04 10:06:35;;;;;;;8.27;6.25;;;;;;;21.43;65.51;99539.91;8204696;28;20046;-72
2022/06/04 10:10:39;;;;;;;8.75;5.60;;;;;;;21.59;65.67;99550.72;8203131;28;20411;-74
2022/06/04 10:14:41;;;;;;;7.15;5.97;;;;;;;21.97;65.24;99545.00;8212585;28;20055;-73
2022/06/04 10:19:04;;;;;;;6.28;5.35;;;;;;;22.24;64.68;99538.25;8202871;28;20070;-74
2022/06/04 10:23:13;;;;;;;7.57;5.47;;;;;;;22.39;63.41;99530.13;8205553;28;20404;-73
2022/06/04 10:27:23;;;;;;;6.82;5.25;;;;;;;22.72;61.95;99546.63;8203324;28;20507;-73
2022/06/04 10:31:39;;;;;;;9.73;5.28;;;;;;;22.76;61.65;99541.94;8202068;28;20047;-72
2022/06/04 10:36:04;;;;;;;8.00;5.20;;;;;;;23.03;60.48;99529.59;8203841;28;20059;-73
2022/06/04 10:40:54;;;;;;;7.60;5.10;;;;;;;23.15;59.92;99521.03;8165140;29;20416;-72
2022/06/04 10:45:23;;;;;;;6.63;5.43;;;;;;;23.24;59.48;99522.66;8150659;29;20091;-72
2022/06/04 10:49:36;;;;;;;7.40;5.25;;;;;;;23.41;59.90;99516.50;8143450;29;20040;-72
2022/06/04 10:53:53;;;;;;;6.47;4.40;;;;;;;23.73;58.05;99523.00;8154826;29;20052;-72
2022/06/04 10:57:54;;;;;;;9.50;5.15;;;;;;;23.65;57.36;99543.44;8185113;29;20051;-73
2022/06/04 11:02:00;;;;;;;6.90;4.43;;;;;;;23.83;57.14;99538.81;8201313;29;20134;-72
2022/06/04 11:06:11;;;;;;;4.50;3.55;;;;;;;24.21;55.67;99547.66;8200587;28;20120;-72
2022/06/04 11:10:15;;;;;;;5.32;3.67;;;;;;;24.04;54.35;99553.88;8202819;28;20043;-72
2022/06/04 11:14:29;;;;;;;5.40;3.50;;;;;;;24.02;54.25;99556.22;8202752;28;20142;-72
2022/06/04 11:18:40;;;;;;;8.05;3.58;;;;;;;23.99;53.77;99553.06;8202002;28;20880;-73
2022/06/04 11:23:04;;;;;;;6.03;3.50;;;;;;;24.21;53.11;99558.69;8201312;28;20059;-73
2022/06/04 11:27:18;;;;;;;5.57;3.25;;;;;;;24.30;52.23;99561.88;8201710;28;20118;-73
2022/06/04 11:31:23;;;;;;;4.78;3.30;;;;;;;24.38;52.69;99557.94;8207136;28;20575;-72
2022/06/04 11:35:46;;;;;;;5.55;3.47;;;;;;;24.47;51.70;99555.63;8202244;28;20043;-71
2022/06/04 11:40:01;;;;;;;4.15;3.50;;;;;;;24.60;51.15;99554.06;8198437;28;20047;-71
2022/06/04 11:44:40;;;;;;;5.43;3.40;;;;;;;24.64;51.37;99549.34;8201259;29;20114;-71
2022/06/04 11:49:17;;;;;;;4.75;3.40;;;;;;;25.12;51.20;99540.72;8197610;28;20047;-71
2022/06/04 11:53:33;;;;;;;7.55;3.08;;;;;;;25.29;49.76;99550.97;8196607;29;20479;-75
2022/06/04 11:58:00;;;;;;;4.80;3.38;;;;;;;24.92;49.35;99550.59;8195356;28;20126;-73
2022/06/04 12:02:24;;;;;;;3.95;3.20;;;;;;;24.67;48.89;99559.63;8042849;29;20053;-72
2022/06/04 12:06:42;;;;;;;6.57;3.08;;;;;;;24.66;49.81;99566.31;8037614;29;20060;-72
2022/06/04 12:11:03;;;;;;;5.85;3.58;;;;;;;24.52;49.31;99558.00;8023142;29;20045;-71
2022/06/04 12:15:25;;;;;;;5.65;3.35;;;;;;;24.24;50.47;99555.94;8040646;29;20132;-72
2022/06/04 12:24:36;;;;;;;7.20;3.35;;;;;;;23.77;51.88;99556.91;7977346;29;20054;-72
2022/06/04 12:28:42;;;;;;;4.90;3.42;;;;;;;23.82;51.67;99551.00;7978472;29;20476;-72
2022/06/04 12:32:44;;;;;;;26.80;5.20;;;;;;;23.92;51.27;99544.75;7979361;29;20058;-73
2022/06/04 12:36:50;;;;;;;11.40;4.80;;;;;;;24.26;51.43;99544.53;7984621;29;20601;-73
2022/06/04 12:41:07;;;;;;;6.57;3.50;;;;;;;24.67;50.50;99543.03;8468452;27;2699772;-73
2022/06/04 12:45:33;;;;;;;14.65;3.72;;;;;;;24.71;49.34;99554.88;8549585;27;20279;-72
2022/06/04 12:49:41;;;;;;;10.38;4.95;;;;;;;24.74;49.26;99562.41;8558555;27;20450;-74
2022/06/04 12:54:20;;;;;;;7.93;4.22;;;;;;;24.86;49.29;99561.19;8555765;27;20072;-73
2022/06/04 12:58:39;;;;;;;6.05;3.60;;;;;;;25.00;48.80;99566.00;8412050;28;20043;-73
2022/06/04 13:02:43;;;;;;;4.90;3.50;;;;;;;24.91;47.45;99562.81;8451843;28;20068;-72
2022/06/04 13:07:00;;;;;;;5.78;3.53;;;;;;;24.68;48.28;99565.94;8416730;28;20071;-72
2022/06/04 13:11:13;;;;;;;5.93;3.42;;;;;;;24.26;48.35;99580.41;8382681;28;20037;-72
2022/06/04 13:15:34;;;;;;;4.10;3.58;;;;;;;24.09;48.43;99583.84;8381903;28;20056;-73
2022/06/04 13:19:37;;;;;;;9.05;4.00;;;;;;;23.94;48.81;99578.28;8383119;28;20099;-72
2022/06/04 13:23:48;;;;;;;8.27;3.42;;;;;;;23.90;50.14;99558.13;8382194;28;20139;-72
2022/06/04 13:27:54;;;;;;;5.70;4.00;;;;;;;23.86;51.24;99553.78;8377504;28;20094;-72
2022/06/04 13:32:01;;;;;;;8.05;3.75;;;;;;;24.03;52.35;99557.81;8367222;28;20473;-72
2022/06/04 13:36:03;;;;;;;4.15;3.17;;;;;;;24.19;50.55;99561.06;8481628;28;20051;-72
2022/06/04 13:40:05;;;;;;;5.40;3.65;;;;;;;24.37;49.36;99556.41;8478611;27;20048;-73
2022/06/04 13:44:14;;;;;;;5.85;3.63;;;;;;;24.57;48.82;99565.91;8468129;28;20441;-71
2022/06/04 13:48:22;;;;;;;12.35;4.32;;;;;;;24.62;49.92;99567.50;8508278;27;20106;-72
2022/06/04 13:52:27;;;;;;;4.63;3.28;;;;;;;24.56;47.72;99569.84;8533744;27;20054;-73
2022/06/04 13:56:38;;;;;;;6.82;3.30;;;;;;;24.37;48.78;99578.47;8531194;27;20046;-73
2022/06/04 14:00:39;;;;;;;6.47;3.78;;;;;;;24.23;49.00;99573.69;8509686;27;20045;-73
2022/06/04 14:09:02;;;;;;;9.10;4.03;;;;;;;24.11;50.88;99578.75;8518646;27;20054;-72
2022/06/04 14:13:03;;;;;;;6.68;3.65;;;;;;;23.83;51.06;99582.94;8530285;27;20513;-71
2022/06/04 14:17:22;;;;;;;19.77;12.90;;;;;;;23.77;51.11;99578.97;8476600;27;20035;-72
2022/06/04 14:21:36;;;;;;;8.88;3.90;;;;;;;23.73;51.07;99583.66;8496508;27;20054;-72
2022/06/04 14:25:46;;;;;;;15.55;3.50;;;;;;;23.62;51.22;99577.28;8527494;27;20496;-71
2022/06/04 14:30:05;;;;;;;5.00;3.17;;;;;;;23.56;51.06;99589.84;8533209;27;20484;-73
2022/06/04 14:34:05;;;;;;;;;;;;;;;23.49;50.89;99584.28;8532005;27;20050;-73
2022/06/04 14:38:16;;;;;;;3.88;3.10;;;;;;;23.47;51.36;99581.13;8458693;28;19961;-72
2022/06/04 14:42:51;;;;;;;4.72;3.58;;;;;;;23.37;50.82;99581.81;8458289;28;20058;-72
2022/06/04 14:47:04;;;;;;;4.28;3.20;;;;;;;23.33;51.08;99575.47;8453000;28;20089;-73
2022/06/04 14:51:26;;;;;;;6.57;3.20;;;;;;;23.34;50.80;99577.06;8453019;28;20047;-72
2022/06/04 14:55:49;;;;;;;3.92;3.17;;;;;;;23.23;50.85;99581.69;8455767;28;20044;-73
2022/06/04 15:00:27;;;;;;;4.40;3.20;;;;;;;23.12;50.93;99574.13;8438426;28;20063;-72
2022/06/04 15:05:06;;;;;;;4.95;3.40;;;;;;;23.09;53.28;99572.16;8447661;28;20043;-73
2022/06/04 15:09:23;;;;;;;7.03;3.55;;;;;;;23.07;52.60;99563.47;8412060;28;20096;-72
2022/06/04 15:13:42;;;;;;;5.35;3.33;;;;;;;23.14;52.32;99558.03;8407202;28;20146;-72
2022/06/04 15:18:04;;;;;;;5.30;3.58;;;;;;;23.28;52.84;99562.06;8417063;28;20043;-73
2022/06/04 15:22:30;;;;;;;5.93;3.83;;;;;;;23.32;52.22;99568.41;8407806;28;20048;-73
2022/06/04 15:26:41;;;;;;;5.15;3.20;;;;;;;23.24;51.52;99572.25;8417011;28;20052;-71
2022/06/04 15:35:24;;;;;;;5.97;3.50;;;;;;;23.67;51.23;99563.16;8357068;28;20577;-72
2022/06/04 15:39:25;;;;;;;5.65;3.28;;;;;;;23.74;51.20;99557.66;8357089;28;20064;-73
2022/06/04 15:43:29;;;;;;;4.93;3.42;;;;;;;23.70;51.79;99559.59;8370224;28;20052;-72
2022/06/04 15:47:39;;;;;;;4.28;3.50;;;;;;;23.56;51.56;99570.56;8439955;28;20676;-75
2022/06/04 15:56:28;;;;;;;6.55;3.55;;;;;;;23.79;51.41;99560.06;8456121;28;20553;-72
2022/06/04 16:00:29;;;;;;;7.72;3.83;;;;;;;23.72;51.97;99567.50;8456093;27;20057;-73
2022/06/04 16:04:57;;;;;;;7.63;3.88;;;;;;;23.75;52.42;99570.25;8505009;27;20480;-74
2022/06/04 16:09:04;;;;;;;6.55;4.15;;;;;;;23.75;52.28;99559.25;8523368;27;20047;-74
2022/06/04 16:13:18;;;;;;;5.35;3.90;;;;;;;23.60;52.22;99563.09;8524220;27;20117;-73
2022/06/04 16:17:45;;;;;;;5.00;4.00;;;;;;;23.68;53.00;99561.97;8528032;27;20113;-73
2022/06/04 16:22:04;;;;;;;7.75;4.45;;;;;;;23.98;52.39;99562.53;8527692;27;20045;-74
2022/06/04 16:26:24;;;;;;;6.38;4.10;;;;;;;24.10;52.00;99563.38;8521006;27;20047;-73
2022/06/04 16:30:25;;;;;;;;;;;;;;;23.77;52.59;99567.94;8520650;27;20407;-74
2022/06/04 16:34:52;;;;;;;5.43;3.88;;;;;;;23.39;52.98;99573.94;8526804;27;19919;-73
2022/06/04 16:38:58;;;;;;;8.27;4.55;;;;;;;23.12;54.69;99587.91;8524009;27;20055;-73
2022/06/04 16:43:04;;;;;;;8.35;4.28;;;;;;;22.98;55.61;99587.78;8520462;27;20074;-74
2022/06/04 16:47:30;;;;;;;4.75;4.18;;;;;;;22.88;56.04;99594.00;8508017;27;20051;-73
2022/06/04 16:51:33;;;;;;;7.32;4.03;;;;;;;22.83;57.45;99583.31;8528460;27;20524;-74
2022/06/04 16:55:36;;;;;;;8.88;4.60;;;;;;;22.77;58.06;99571.06;8519517;27;20134;-73
2022/06/04 16:59:37;;;;;;;12.18;6.30;;;;;;;22.67;58.33;99578.03;8524333;27;20682;-74
2022/06/04 17:03:50;;;;;;;17.15;8.60;;;;;;;22.51;59.07;99579.41;8521993;27;20485;-72
2022/06/04 17:08:04;;;;;;;18.25;9.15;;;;;;;22.33;59.37;99585.50;8494643;27;20070;-72
2022/06/04 17:12:24;;;;;;;15.23;7.28;;;;;;;22.17;60.04;99604.19;8518227;27;20043;-72
2022/06/04 17:16:39;;;;;;;9.77;6.47;;;;;;;22.00;61.20;99615.72;8521057;27;20043;-71
2022/06/04 17:20:51;;;;;;;8.13;5.90;;;;;;;21.90;62.39;99610.84;8508062;27;20161;-71
2022/06/04 17:25:13;;;;;;;11.85;5.85;;;;;;;21.82;62.68;99614.69;8511071;27;20167;-71
2022/06/04 17:29:51;;;;;;;6.82;5.60;;;;;;;21.79;63.34;99615.41;8493433;27;20484;-71
2022/06/04 17:34:10;;;;;;;9.13;6.32;;;;;;;21.70;64.71;99612.13;8409256;28;20044;-72
2022/06/04 17:38:10;;;;;;;;;;;;;;;21.57;64.84;99624.53;8414913;28;20056;-71
2022/06/04 17:42:12;;;;;;;11.52;5.95;;;;;;;21.43;65.25;99614.88;8359209;28;19928;-71
2022/06/04 17:46:13;;;;;;;9.18;6.18;;;;;;;21.35;65.65;99613.19;8329795;28;20048;-71
2022/06/04 17:50:16;;;;;;;8.30;6.22;;;;;;;21.19;66.31;99609.78;8359115;28;20065;-71
2022/06/04 17:54:19;;;;;;;6.90;5.70;;;;;;;21.13;67.14;99594.75;8343813;28;20076;-72
2022/06/04 17:58:20;;;;;;;13.98;6.93;;;;;;;21.07;67.95;99585.22;8359533;28;20044;-72
2022/06/04 18:02:22;;;;;;;9.18;6.90;;;;;;;21.05;68.47;99582.03;8359412;28;20048;-72
2022/06/04 18:06:23;;;;;;;9.68;6.68;;;;;;;20.98;68.55;99587.44;8352938;28;20053;-72
2022/06/04 18:10:24;;;;;;;11.75;6.60;;;;;;;20.88;69.21;99599.00;8454886;28;20047;-73
2022/06/04 18:14:26;;;;;;;10.18;6.93;;;;;;;20.84;69.62;99603.63;8457286;28;20044;-73
2022/06/04 18:18:27;;;;;;;14.75;6.45;;;;;;;20.83;69.80;99602.06;8444345;28;20173;-74
2022/06/04 18:22:29;;;;;;;14.20;6.32;;;;;;;20.78;70.25;99599.63;8462193;28;20052;-72
2022/06/04 18:26:30;;;;;;;8.15;6.60;;;;;;;20.72;70.87;99601.06;8463698;28;20088;-73
2022/06/04 18:30:32;;;;;;;7.38;6.57;;;;;;;20.64;71.29;99600.94;8452702;28;20490;-73
2022/06/04 18:34:33;;;;;;;7.70;6.80;;;;;;;20.56;71.74;99599.22;8436924;28;20048;-73
2022/06/04 18:38:36;;;;;;;9.30;6.85;;;;;;;20.45;72.39;99614.69;8451079;27;20429;-72
2022/06/04 18:55:36;;;;;;;13.40;8.25;;;;;;;19.85;75.10;99629.03;8504307;27;20051;-72
2022/06/04 18:59:40;;;;;;;8.57;7.70;;;;;;;19.68;75.53;99620.03;8519837;27;20190;-72
2022/06/04 19:03:41;;;;;;;14.07;9.77;;;;;;;19.53;76.06;99634.56;8510049;27;20079;-73
2022/06/04 19:16:25;;;;;;;13.20;10.48;;;;;;;19.03;77.97;99648.94;8459350;27;20441;-74
2022/06/04 19:24:48;;;;;;;10.80;9.52;;;;;;;18.73;78.58;99667.66;8482371;27;20043;-72
2022/06/04 19:28:49;;;;;;;14.52;9.52;;;;;;;18.55;79.13;99671.88;8513127;27;20114;-73
2022/06/04 19:32:50;;;;;;;11.50;9.13;;;;;;;18.42;79.61;99689.41;8513958;27;20051;-72
2022/06/04 19:36:52;;;;;;;14.40;10.13;;;;;;;18.31;79.58;99689.09;8503905;27;20077;-72
2022/06/04 19:40:53;;;;;;;13.25;10.13;;;;;;;18.14;79.95;99690.16;8510668;27;20058;-72
2022/06/04 19:44:56;;;;;;;12.00;9.70;;;;;;;18.01;80.13;99696.78;8511254;27;20043;-72
2022/06/04 19:48:59;;;;;;;14.23;10.38;;;;;;;17.92;80.51;99698.06;8508735;27;20062;-72
2022/06/04 19:57:21;;;;;;;18.05;11.48;;;;;;;17.70;80.59;99697.38;8522153;27;20055;-73
2022/06/04 20:01:22;;;;;;;23.92;11.70;;;;;;;17.61;80.64;99698.59;8513068;27;20412;-72
2022/06/04 20:05:23;;;;;;;16.05;11.65;;;;;;;17.50;80.60;99702.91;8502366;27;20062;-73
2022/06/04 20:09:24;;;;;;;18.38;12.13;;;;;;;17.38;81.05;99711.09;8467694;27;20050;-72
2022/06/04 20:13:28;;;;;;;13.35;11.38;;;;;;;17.24;81.03;99717.66;8505412;27;20054;-73
2022/06/04 20:17:31;;;;;;;18.30;11.90;;;;;;;17.14;80.92;99712.63;8514363;27;20512;-73
2022/06/04 20:21:32;;;;;;;17.42;12.05;;;;;;;17.01;80.77;99724.66;8487643;27;20050;-72
2022/06/04 20:25:34;;;;;;;15.57;12.10;;;;;;;16.92;80.79;99721.19;8505711;27;20420;-73